createdAt,value
2023-02-28T00:01:31.128Z,101506.38
2023-02-28T00:03:59.722Z,101504.47
2023-02-28T00:06:28.264Z,101507.13
2023-02-28T00:08:56.281Z,101514.09
2023-02-28T00:11:24.692Z,101514.91
2023-02-28T00:13:52.723Z,101515.56
2023-02-28T00:16:23.723Z,101515.56
2023-02-28T00:18:52.412Z,101518.16
2023-02-28T00:21:22.167Z,101525.91
2023-02-28T00:23:50.334Z,101517.84
2023-02-28T00:26:21.267Z,101522.22
2023-02-28T00:28:54.051Z,101517.84
2023-02-28T00:31:22.371Z,101525.09
2023-02-28T00:33:52.239Z,101531.28
2023-02-28T00:36:20.701Z,101534.72
2023-02-28T00:38:48.969Z,101539.09
2023-02-28T00:41:17.250Z,101535.50
2023-02-28T00:43:45.427Z,101536.34
2023-02-28T00:55:17.201Z,101532.78
2023-02-28T00:57:45.862Z,101530.28
2023-02-28T01:00:15.640Z,101539.09
2023-02-28T01:02:44.921Z,101536.53
2023-02-28T01:05:13.323Z,101528.63
2023-02-28T01:07:41.601Z,101534.09
2023-02-28T01:10:11.048Z,101535.00
2023-02-28T01:12:39.411Z,101535.19
2023-02-28T01:15:08.461Z,101531.66
2023-02-28T01:17:37.567Z,101533.00
2023-02-28T01:20:06.441Z,101534.63
2023-02-28T01:22:36.412Z,101541.72
2023-02-28T01:25:05.045Z,101544.53
2023-02-28T01:27:33.322Z,101538.13
2023-02-28T01:30:01.645Z,101537.50
2023-02-28T01:32:29.962Z,101535.03
2023-02-28T01:34:58.086Z,101533.97
2023-02-28T01:37:26.322Z,101536.94
2023-02-28T01:39:54.699Z,101534.19
2023-02-28T01:42:22.966Z,101536.78
2023-02-28T01:45:02.701Z,101531.75
2023-02-28T01:47:36.363Z,101540.66
2023-02-28T01:50:09.013Z,101539.72
2023-02-28T01:52:37.439Z,101544.16
2023-02-28T01:55:09.635Z,101539.66
2023-02-28T01:57:48.330Z,101538.63
2023-02-28T02:00:19.878Z,101536.13
2023-02-28T02:02:52.469Z,101537.28
2023-02-28T02:05:25.360Z,101535.66
2023-02-28T02:07:58.571Z,101539.31
2023-02-28T02:10:50.634Z,101525.81
2023-02-28T02:13:37.662Z,101533.63
2023-02-28T02:16:31.875Z,101536.88
2023-02-28T02:19:21.114Z,101528.69
2023-02-28T02:22:04.045Z,101533.16
2023-02-28T02:25:12.804Z,101537.50
2023-02-28T02:28:15.878Z,101531.13
2023-02-28T02:31:08.627Z,101529.34
2023-02-28T02:33:42.920Z,101524.78
2023-02-28T02:36:40.064Z,101524.91
2023-02-28T02:39:18.625Z,101529.81
2023-02-28T02:41:59.725Z,101530.78
2023-02-28T02:44:30.376Z,101525.28
2023-02-28T02:47:15.330Z,101521.72
2023-02-28T02:49:52.769Z,101528.13
2023-02-28T02:52:26.088Z,101523.78
2023-02-28T02:54:58.179Z,101523.34
2023-02-28T02:57:45.206Z,101529.44
2023-02-28T03:00:19.205Z,101523.44
2023-02-28T03:02:50.886Z,101519.91
2023-02-28T03:05:27.014Z,101519.75
2023-02-28T03:07:55.165Z,101520.69
2023-02-28T03:10:34.099Z,101512.88
2023-02-28T03:13:26.257Z,101510.22
2023-02-28T03:16:23.441Z,101511.91
2023-02-28T03:18:55.449Z,101513.81
2023-02-28T03:21:32.368Z,101521.19
2023-02-28T03:24:28.222Z,101520.41
2023-02-28T03:27:12.338Z,101516.91
2023-02-28T03:29:46.620Z,101524.47
2023-02-28T03:32:52.370Z,101533.22
2023-02-28T03:35:24.755Z,101537.16
2023-02-28T03:37:58.200Z,101539.81
2023-02-28T03:40:31.626Z,101538.53
2023-02-28T03:43:09.708Z,101545.13
2023-02-28T03:45:41.029Z,101545.50
2023-02-28T03:48:19.466Z,101541.69
2023-02-28T03:50:53.497Z,101542.84
2023-02-28T03:53:32.151Z,101534.81
2023-02-28T03:56:23.634Z,101538.53
2023-02-28T03:59:06.201Z,101547.22
2023-02-28T04:01:34.347Z,101550.59
2023-02-28T04:04:03.525Z,101547.72
2023-02-28T04:06:34.113Z,101544.44
2023-02-28T04:09:03.193Z,101543.53
2023-02-28T04:11:38.284Z,101544.13
2023-02-28T04:14:08.801Z,101535.16
2023-02-28T04:16:40.623Z,101545.63
2023-02-28T04:19:10.248Z,101538.41
2023-02-28T04:21:44.152Z,101541.84
2023-02-28T04:24:15.588Z,101543.50
2023-02-28T04:26:46.717Z,101540.84
2023-02-28T04:29:20.480Z,101543.31
2023-02-28T04:31:49.058Z,101548.38
2023-02-28T04:34:17.856Z,101554.00
2023-02-28T04:36:47.269Z,101550.81
2023-02-28T04:39:16.230Z,101548.72
2023-02-28T04:41:44.396Z,101552.84
2023-02-28T04:44:12.610Z,101549.19
2023-02-28T04:46:40.889Z,101552.28
2023-02-28T04:49:12.149Z,101560.13
2023-02-28T04:51:41.213Z,101559.38
2023-02-28T04:54:09.452Z,101567.34
2023-02-28T04:56:37.693Z,101561.88
2023-02-28T04:59:05.987Z,101565.06
2023-02-28T05:01:36.449Z,101568.31
2023-02-28T05:04:06.215Z,101574.13
2023-02-28T05:06:34.886Z,101574.78
2023-02-28T05:09:03.484Z,101577.19
2023-02-28T05:11:37.610Z,101579.78
2023-02-28T05:14:08.766Z,101564.03
2023-02-28T05:16:36.939Z,101563.69
2023-02-28T05:19:05.260Z,101573.03
2023-02-28T05:21:34.835Z,101570.44
2023-02-28T05:24:06.608Z,101559.84
2023-02-28T05:26:40.895Z,101558.97
2023-02-28T05:29:10.378Z,101557.34
2023-02-28T05:31:38.921Z,101555.75
2023-02-28T05:34:07.813Z,101556.00
2023-02-28T19:35:35.408Z,101421.44
2023-02-28T19:38:03.975Z,101405.72
2023-02-28T19:40:32.293Z,101413.72
2023-02-28T19:43:02.730Z,101407.59
2023-02-28T19:45:34.413Z,101404.19
2023-02-28T19:48:02.618Z,101410.56
2023-02-28T19:50:31.270Z,101409.09
2023-02-28T19:53:00.548Z,101415.22
2023-02-28T19:55:29.167Z,101415.47
2023-02-28T19:57:57.746Z,101417.59
2023-02-28T20:00:26.033Z,101420.41
2023-02-28T20:02:54.213Z,101417.09
2023-02-28T20:05:22.328Z,101421.44
2023-02-28T20:07:51.077Z,101420.59
2023-02-28T20:10:19.526Z,101414.47
2023-02-28T20:12:47.848Z,101418.88
2023-02-28T20:15:16.628Z,101414.41
2023-02-28T20:17:47.043Z,101415.28
2023-02-28T20:20:15.350Z,101416.97
2023-02-28T20:22:43.959Z,101419.56
2023-02-28T20:25:12.166Z,101413.31
2023-02-28T20:27:40.283Z,101416.72
2023-02-28T20:30:09.089Z,101416.63
2023-02-28T20:32:39.890Z,101416.72
2023-02-28T20:35:11.968Z,101413.31
2023-02-28T20:37:42.970Z,101421.44
2023-02-28T20:40:11.846Z,101418.94
2023-02-28T20:42:40.075Z,101420.84
2023-02-28T20:45:09.034Z,101410.47
2023-02-28T20:47:37.301Z,101412.31
2023-02-28T20:50:06.264Z,101408.06
2023-02-28T20:52:34.807Z,101402.91
2023-02-28T20:55:03.166Z,101406.50
2023-02-28T20:57:31.588Z,101409.31
2023-02-28T20:59:59.939Z,101421.03
2023-02-28T21:02:28.790Z,101422.00
2023-02-28T21:04:57.133Z,101417.78
2023-02-28T21:07:26.452Z,101421.28
2023-02-28T21:09:55.529Z,101419.66
2023-02-28T21:12:24.160Z,101428.75
2023-02-28T21:14:52.539Z,101426.47
2023-02-28T21:17:25.029Z,101423.25
2023-02-28T21:19:53.378Z,101430.31
2023-02-28T21:22:21.987Z,101436.47
2023-02-28T21:24:50.385Z,101432.88
2023-02-28T21:27:18.796Z,101439.03
2023-02-28T21:29:47.470Z,101438.91
2023-02-28T21:32:15.781Z,101434.34
2023-02-28T21:34:51.711Z,101435.19
2023-02-28T21:37:20.771Z,101436.16
2023-02-28T21:39:49.238Z,101438.91
2023-02-28T21:42:18.125Z,101434.53
2023-02-28T21:44:46.508Z,101431.88
2023-02-28T21:47:14.767Z,101435.38
2023-02-28T21:49:42.992Z,101436.25
2023-02-28T21:52:11.237Z,101428.28
2023-02-28T21:54:39.491Z,101430.94
2023-02-28T21:57:07.887Z,101431.09
2023-02-28T21:59:36.879Z,101438.28
2023-02-28T22:02:05.896Z,101431.41
2023-02-28T22:04:34.124Z,101434.94
2023-02-28T22:07:02.642Z,101435.41
2023-02-28T22:09:31.323Z,101432.19
2023-02-28T22:11:59.913Z,101432.28
2023-02-28T22:14:28.711Z,101438.16
2023-02-28T22:16:58.137Z,101434.31
2023-02-28T22:19:28.404Z,101431.16
2023-02-28T22:21:57.579Z,101438.50
2023-02-28T22:24:26.204Z,101427.97
2023-02-28T22:26:54.473Z,101429.56
2023-02-28T22:29:23.076Z,101432.97
2023-02-28T22:31:51.546Z,101433.75
2023-02-28T22:34:20.098Z,101430.16
2023-02-28T22:36:48.520Z,101428.28
2023-02-28T22:39:17.041Z,101429.09
2023-02-28T22:41:45.269Z,101431.88
2023-02-28T22:44:13.489Z,101425.72
2023-02-28T22:46:41.545Z,101428.38
2023-02-28T22:49:09.480Z,101430.22
2023-02-28T22:51:37.681Z,101423.59
2023-02-28T22:54:05.996Z,101428.97
2023-02-28T22:56:34.406Z,101427.19
2023-02-28T22:59:02.994Z,101422.69
2023-02-28T23:01:35.345Z,101429.69
2023-02-28T23:04:04.048Z,101429.56
2023-02-28T23:06:44.551Z,101430.63
2023-02-28T23:09:18.489Z,101425.69
2023-02-28T23:11:48.752Z,101424.91
2023-02-28T23:14:19.150Z,101425.69
2023-02-28T23:16:54.514Z,101421.34
2023-02-28T23:19:29.968Z,101418.75
2023-02-28T23:21:59.674Z,101419.69
2023-02-28T23:24:29.991Z,101418.81
2023-02-28T23:27:01.191Z,101418.91
2023-02-28T23:29:29.821Z,101411.88
2023-02-28T23:31:58.480Z,101414.59
2023-02-28T23:34:28.355Z,101415.47
2023-02-28T23:36:59.472Z,101412.03
2023-02-28T23:39:30.116Z,101406.13
2023-02-28T23:41:58.746Z,101413.25
2023-02-28T23:44:27.091Z,101412.56
2023-02-28T23:46:56.004Z,101414.88
2023-02-28T23:49:24.349Z,101406.94
2023-02-28T23:51:54.602Z,101406.28
2023-02-28T23:54:22.921Z,101408.09
2023-02-28T23:56:51.631Z,101406.34
2023-02-28T23:59:20.191Z,101408.31
